createdAt,value
2017-09-25T00:01:36.425Z,-58
2017-09-25T00:04:04.766Z,-60
2017-09-25T00:06:33.100Z,-58
2017-09-25T00:09:01.435Z,-59
2017-09-25T00:11:30.183Z,-59
2017-09-25T00:13:59.206Z,-60
2017-09-25T00:16:28.148Z,-60
2017-09-25T00:18:56.519Z,-60
2017-09-25T00:21:24.847Z,-60
2017-09-25T00:23:53.168Z,-59
2017-09-25T00:26:23.124Z,-59
2017-09-25T00:28:52.153Z,-60
2017-09-25T00:31:20.468Z,-59
2017-09-25T00:33:48.947Z,-60
2017-09-25T00:36:17.714Z,-60
2017-09-25T00:38:46.690Z,-60
2017-09-25T00:41:15.539Z,-60
2017-09-25T00:43:44.676Z,-59
2017-09-25T00:46:13.070Z,-58
2017-09-25T00:48:41.767Z,-60
2017-09-25T00:51:10.339Z,-58
2017-09-25T00:53:52.864Z,-60
2017-09-25T00:56:22.790Z,-58
2017-09-25T00:58:51.328Z,-58
2017-09-25T01:01:25.645Z,-58
2017-09-25T01:03:55.218Z,-58
2017-09-25T01:06:25.171Z,-58
2017-09-25T01:08:54.452Z,-58
2017-09-25T01:11:25.535Z,-59
2017-09-25T01:13:55.293Z,-58
2017-09-25T01:16:23.819Z,-59
2017-09-25T01:18:52.234Z,-59
2017-09-25T01:21:20.590Z,-58
2017-09-25T01:23:49.090Z,-58
2017-09-25T01:26:19.370Z,-58
2017-09-25T01:28:48.340Z,-59
2017-09-25T01:31:17.167Z,-58
2017-09-25T01:33:45.988Z,-58
2017-09-25T01:36:14.362Z,-58
2017-09-25T01:38:43.851Z,-60
2017-09-25T01:41:12.356Z,-60
2017-09-25T01:43:43.000Z,-58
2017-09-25T01:46:12.444Z,-58
2017-09-25T01:48:42.036Z,-58
2017-09-25T01:51:10.516Z,-59
2017-09-25T01:53:39.486Z,-60
2017-09-25T01:56:09.005Z,-61
2017-09-25T01:58:38.085Z,-60
2017-09-25T02:01:06.423Z,-60
2017-09-25T02:03:36.274Z,-58
2017-09-25T02:06:04.575Z,-59
2017-09-25T02:08:33.680Z,-58
2017-09-25T02:11:02.776Z,-58
2017-09-25T02:13:31.847Z,-59
2017-09-25T02:16:00.158Z,-58
2017-09-25T02:18:28.494Z,-58
2017-09-25T02:20:56.790Z,-58
2017-09-25T02:23:25.069Z,-59
2017-09-25T02:25:53.374Z,-59
2017-09-25T02:28:22.707Z,-59
2017-09-25T02:30:51.016Z,-59
2017-09-25T02:33:19.856Z,-59
2017-09-25T02:35:48.370Z,-60
2017-09-25T02:38:16.675Z,-59
2017-09-25T02:40:45.331Z,-59
2017-09-25T02:43:13.639Z,-60
2017-09-25T02:45:41.947Z,-60
2017-09-25T02:48:11.154Z,-58
2017-09-25T02:50:39.539Z,-58
2017-09-25T02:53:09.200Z,-58
2017-09-25T02:55:37.497Z,-58
2017-09-25T02:58:06.539Z,-59
2017-09-25T03:00:34.823Z,-59
2017-09-25T03:03:03.186Z,-58
2017-09-25T03:05:31.486Z,-59
2017-09-25T03:07:59.785Z,-59
2017-09-25T03:10:29.540Z,-59
2017-09-25T03:12:58.018Z,-59
2017-09-25T03:15:26.314Z,-59
2017-09-25T03:17:54.769Z,-59
2017-09-25T03:20:23.126Z,-59
2017-09-25T03:22:51.499Z,-59
2017-09-25T03:25:20.771Z,-60
2017-09-25T03:27:49.119Z,-60
2017-09-25T03:30:17.565Z,-58
2017-09-25T03:32:45.954Z,-59
2017-09-25T03:35:15.383Z,-58
2017-09-25T03:37:43.695Z,-59
2017-09-25T03:40:12.344Z,-60
2017-09-25T03:42:40.803Z,-59
2017-09-25T03:45:09.508Z,-60
2017-09-25T03:47:37.798Z,-60
2017-09-25T03:50:06.107Z,-59
2017-09-25T03:52:34.477Z,-58
2017-09-25T03:55:03.127Z,-60
2017-09-25T03:57:31.436Z,-59
2017-09-25T04:00:00.064Z,-58
2017-09-25T04:02:30.825Z,-58
2017-09-25T04:04:59.617Z,-59
2017-09-25T04:07:28.171Z,-60
2017-09-25T04:09:56.471Z,-59
2017-09-25T04:12:24.851Z,-59
2017-09-25T04:14:53.172Z,-60
2017-09-25T04:17:21.498Z,-60
2017-09-25T04:19:50.025Z,-59
2017-09-25T04:22:20.570Z,-59
2017-09-25T04:24:49.251Z,-59
2017-09-25T04:28:21.175Z,-59
2017-09-25T04:30:50.106Z,-59
2017-09-25T04:33:18.491Z,-59
2017-09-25T04:35:47.255Z,-60
2017-09-25T04:38:15.923Z,-60
2017-09-25T04:40:44.219Z,-60
2017-09-25T04:43:12.830Z,-59
2017-09-25T04:45:41.299Z,-60
2017-09-25T04:48:10.159Z,-59
2017-09-25T04:50:54.373Z,-61
2017-09-25T04:53:24.665Z,-61
2017-09-25T04:55:53.058Z,-60
2017-09-25T04:58:21.378Z,-60
2017-09-25T05:00:50.035Z,-60
2017-09-25T05:03:26.409Z,-62
2017-09-25T05:05:55.590Z,-61
2017-09-25T05:08:23.886Z,-61
2017-09-25T05:10:52.694Z,-59
2017-09-25T05:13:21.750Z,-59
2017-09-25T05:15:51.732Z,-59
2017-09-25T05:18:20.096Z,-59
2017-09-25T05:20:48.575Z,-59
2017-09-25T05:23:17.430Z,-59
2017-09-25T05:25:45.820Z,-59
2017-09-25T05:28:14.264Z,-61
2017-09-25T05:30:42.715Z,-58
2017-09-25T05:33:11.254Z,-56
2017-09-25T05:35:39.595Z,-56
2017-09-25T05:38:07.955Z,-56
2017-09-25T05:40:36.335Z,-58
2017-09-25T05:43:04.743Z,-56
2017-09-25T05:45:33.145Z,-55
2017-09-25T05:48:01.951Z,-56
2017-09-25T05:50:30.340Z,-57
2017-09-25T05:52:59.016Z,-57
2017-09-25T05:55:27.528Z,-55
2017-09-25T05:57:55.863Z,-57
2017-09-25T06:00:24.307Z,-55
2017-09-25T06:02:52.641Z,-57
2017-09-25T06:05:20.997Z,-58
2017-09-25T06:07:49.295Z,-55
2017-09-25T06:10:17.610Z,-57
2017-09-25T06:12:46.323Z,-58
2017-09-25T06:15:14.631Z,-56
2017-09-25T06:17:42.955Z,-57
2017-09-25T06:20:11.261Z,-55
2017-09-25T06:22:39.722Z,-58
2017-09-25T06:25:08.042Z,-58
2017-09-25T06:27:36.391Z,-57
2017-09-25T06:30:04.467Z,-57
2017-09-25T06:32:32.815Z,-57
2017-09-25T06:35:01.426Z,-57
2017-09-25T06:37:30.239Z,-57
2017-09-25T06:39:58.838Z,-56
2017-09-25T06:42:27.381Z,-55
2017-09-25T06:44:55.707Z,-55
2017-09-25T06:47:24.802Z,-58
2017-09-25T06:49:54.061Z,-57
2017-09-25T06:52:22.374Z,-57
2017-09-25T06:54:50.813Z,-56
2017-09-25T06:57:20.625Z,-57
2017-09-25T06:59:49.863Z,-57
2017-09-25T07:02:18.295Z,-57
2017-09-25T07:04:46.882Z,-57
2017-09-25T07:07:16.172Z,-57
2017-09-25T07:09:44.760Z,-59
2017-09-25T07:12:13.121Z,-59
2017-09-25T07:14:41.467Z,-57
2017-09-25T07:17:09.955Z,-57
2017-09-25T07:19:39.627Z,-56
2017-09-25T07:22:08.239Z,-57
2017-09-25T07:24:36.958Z,-56
2017-09-25T07:27:05.717Z,-56
2017-09-25T07:29:34.109Z,-56
2017-09-25T07:32:02.471Z,-56
2017-09-25T07:34:30.748Z,-56
2017-09-25T07:36:59.491Z,-56
2017-09-25T07:39:28.049Z,-56
2017-09-25T07:41:56.587Z,-57
2017-09-25T07:44:24.914Z,-56
2017-09-25T07:46:54.203Z,-56
2017-09-25T07:49:23.372Z,-56
2017-09-25T07:51:51.738Z,-57
2017-09-25T07:54:20.702Z,-54
2017-09-25T07:56:49.203Z,-54
2017-09-25T07:59:17.937Z,-55
2017-09-25T08:01:49.100Z,-57
2017-09-25T08:04:21.210Z,-55
2017-09-25T08:06:51.434Z,-55
2017-09-25T08:09:19.809Z,-56
2017-09-25T08:11:48.186Z,-58
2017-09-25T08:14:16.468Z,-58
2017-09-25T08:16:44.788Z,-56
2017-09-25T08:19:13.812Z,-57
2017-09-25T08:21:42.175Z,-57
2017-09-25T08:24:11.647Z,-59
2017-09-25T08:26:39.944Z,-57
2017-09-25T08:29:08.991Z,-58
2017-09-25T08:31:37.479Z,-57
2017-09-25T08:34:05.802Z,-58
2017-09-25T08:36:35.071Z,-57
2017-09-25T08:39:04.139Z,-57
2017-09-25T08:41:32.453Z,-57
2017-09-25T08:44:01.288Z,-57
2017-09-25T08:46:29.651Z,-57
2017-09-25T08:48:58.001Z,-55
2017-09-25T08:51:26.319Z,-57
2017-09-25T08:53:54.683Z,-57
2017-09-25T08:56:23.924Z,-58
2017-09-25T08:58:52.263Z,-58
2017-09-25T09:01:20.571Z,-57
2017-09-25T09:03:49.277Z,-59
2017-09-25T09:06:17.615Z,-60
2017-09-25T09:08:48.062Z,-57
2017-09-25T09:11:16.377Z,-56
2017-09-25T09:13:44.711Z,-56
2017-09-25T09:16:13.043Z,-56
2017-09-25T09:18:41.423Z,-54
2017-09-25T09:21:09.707Z,-56
2017-09-25T09:23:38.060Z,-56
2017-09-25T09:26:06.932Z,-57
2017-09-25T09:28:35.343Z,-57
2017-09-25T09:31:03.895Z,-59
2017-09-25T09:33:32.307Z,-58
2017-09-25T09:36:02.100Z,-58
2017-09-25T09:38:30.432Z,-58
2017-09-25T09:40:58.821Z,-57
2017-09-25T09:43:27.352Z,-57
2017-09-25T09:45:56.135Z,-56
2017-09-25T09:48:24.458Z,-57
2017-09-25T09:50:52.879Z,-57
2017-09-25T09:53:21.193Z,-57
2017-09-25T09:55:51.190Z,-55
2017-09-25T09:58:19.595Z,-55
2017-09-25T10:00:48.686Z,-58
2017-09-25T10:03:17.921Z,-58
2017-09-25T10:05:46.243Z,-56
2017-09-25T10:08:15.147Z,-55
2017-09-25T10:10:43.431Z,-56
2017-09-25T10:13:11.707Z,-56
2017-09-25T10:15:40.039Z,-56
2017-09-25T10:18:08.389Z,-56
2017-09-25T10:20:36.870Z,-56
2017-09-25T10:23:05.174Z,-57
2017-09-25T10:25:33.467Z,-58
2017-09-25T10:28:01.775Z,-56
2017-09-25T10:30:30.519Z,-56
2017-09-25T10:32:58.888Z,-54
2017-09-25T10:35:27.265Z,-56
2017-09-25T10:37:56.007Z,-56
2017-09-25T10:40:25.286Z,-56
2017-09-25T10:42:53.859Z,-56
2017-09-25T10:45:22.293Z,-56
2017-09-25T10:47:51.076Z,-57
2017-09-25T10:50:19.463Z,-56
2017-09-25T10:52:48.551Z,-58
2017-09-25T10:55:18.047Z,-58
2017-09-25T10:57:47.129Z,-58
2017-09-25T11:00:15.764Z,-58
2017-09-25T11:02:44.093Z,-58
2017-09-25T11:05:12.509Z,-58
2017-09-25T11:07:41.023Z,-58
2017-09-25T11:10:09.658Z,-58
2017-09-25T11:12:38.678Z,-58
2017-09-25T11:15:07.336Z,-58
2017-09-25T11:17:35.661Z,-58
2017-09-25T11:20:03.984Z,-58
2017-09-25T11:22:32.285Z,-58
2017-09-25T11:25:00.629Z,-58
2017-09-25T11:27:29.089Z,-58
2017-09-25T11:29:57.403Z,-58
2017-09-25T11:32:25.825Z,-60
2017-09-25T11:34:54.185Z,-58
2017-09-25T11:37:23.662Z,-60
2017-09-25T11:39:52.087Z,-60
2017-09-25T11:42:20.616Z,-59
2017-09-25T11:44:48.940Z,-60
2017-09-25T11:47:17.247Z,-58
2017-09-25T11:49:46.240Z,-58
2017-09-25T11:52:14.518Z,-60
2017-09-25T11:54:43.221Z,-59
2017-09-25T11:57:11.497Z,-58
2017-09-25T11:59:39.769Z,-58
2017-09-25T12:02:08.085Z,-58
2017-09-25T12:04:37.098Z,-58
2017-09-25T12:07:05.401Z,-58
2017-09-25T12:09:33.677Z,-58
2017-09-25T12:12:02.435Z,-58
2017-09-25T12:14:31.433Z,-58
2017-09-25T12:16:59.803Z,-58
2017-09-25T12:19:28.822Z,-58
2017-09-25T12:21:57.103Z,-58
2017-09-25T12:24:25.393Z,-58
2017-09-25T12:26:53.673Z,-58
2017-09-25T12:29:21.949Z,-58
2017-09-25T12:31:50.225Z,-58
2017-09-25T12:34:18.521Z,-58
2017-09-25T12:36:47.211Z,-58
2017-09-25T12:39:15.514Z,-58
2017-09-25T12:41:44.586Z,-58
2017-09-25T12:44:13.041Z,-58
2017-09-25T12:46:41.312Z,-58
2017-09-25T12:49:09.641Z,-58
2017-09-25T12:51:38.481Z,-59
2017-09-25T12:54:06.757Z,-59
2017-09-25T12:56:35.030Z,-58
2017-09-25T12:59:03.438Z,-58
2017-09-25T13:01:31.784Z,-58
2017-09-25T13:04:00.097Z,-59
2017-09-25T13:06:28.411Z,-59
2017-09-25T13:08:57.489Z,-59
2017-09-25T13:11:25.782Z,-60
2017-09-25T13:13:54.101Z,-57
2017-09-25T13:16:22.437Z,-60
2017-09-25T13:18:51.357Z,-60
2017-09-25T13:21:19.658Z,-58
2017-09-25T13:23:47.937Z,-58
2017-09-25T13:26:16.289Z,-58
2017-09-25T13:28:44.565Z,-57
2017-09-25T13:31:13.045Z,-54
2017-09-25T13:33:41.317Z,-56
2017-09-25T13:36:09.651Z,-55
2017-09-25T13:38:37.922Z,-55
2017-09-25T13:41:06.209Z,-58
2017-09-25T13:43:36.057Z,-59
2017-09-25T13:46:04.343Z,-58
2017-09-25T13:48:32.817Z,-58
2017-09-25T13:51:01.297Z,-58
2017-09-25T13:53:29.632Z,-58
2017-09-25T13:55:58.053Z,-58
2017-09-25T13:58:26.321Z,-58
2017-09-25T14:03:28.918Z,-58
2017-09-25T14:05:57.205Z,-56
2017-09-25T14:08:25.470Z,-56
2017-09-25T14:10:54.506Z,-56
2017-09-25T14:13:22.773Z,-56
2017-09-25T14:15:51.476Z,-56
2017-09-25T14:18:19.817Z,-56
2017-09-25T14:20:48.158Z,-56
2017-09-25T14:23:16.465Z,-56
2017-09-25T14:25:45.209Z,-56
2017-09-25T14:28:13.633Z,-56
2017-09-25T14:30:41.941Z,-56
2017-09-25T14:33:10.422Z,-58
2017-09-25T14:35:38.726Z,-58
2017-09-25T14:38:07.105Z,-58
2017-09-25T14:40:35.585Z,-55
2017-09-25T14:43:03.866Z,-58
2017-09-25T14:45:32.709Z,-58
2017-09-25T14:48:01.049Z,-59
2017-09-25T14:50:29.389Z,-56
2017-09-25T14:52:57.706Z,-55
2017-09-25T14:55:26.357Z,-56
2017-09-25T14:57:54.639Z,-56
2017-09-25T15:00:22.941Z,-56
2017-09-25T15:02:51.364Z,-56
2017-09-25T15:05:19.713Z,-56
2017-09-25T15:07:47.993Z,-56
2017-09-25T15:10:16.831Z,-56
2017-09-25T15:12:45.193Z,-56
2017-09-25T15:15:13.553Z,-57
2017-09-25T15:17:41.845Z,-56
2017-09-25T15:20:10.132Z,-58
2017-09-25T15:22:38.457Z,-58
2017-09-25T15:25:06.797Z,-55
2017-09-25T15:27:35.185Z,-55
2017-09-25T15:30:03.516Z,-56
2017-09-25T15:32:32.540Z,-55
2017-09-25T15:35:01.497Z,-55
2017-09-25T15:37:29.781Z,-56
2017-09-25T15:39:58.109Z,-56
2017-09-25T15:42:26.438Z,-56
2017-09-25T15:44:54.927Z,-56
2017-09-25T15:47:23.409Z,-56
2017-09-25T15:49:51.706Z,-56
2017-09-25T15:52:20.205Z,-56
2017-09-25T15:54:48.489Z,-56
2017-09-25T15:57:17.020Z,-56
2017-09-25T15:59:46.641Z,-56
2017-09-25T16:02:14.949Z,-56
2017-09-25T16:04:43.712Z,-56
2017-09-25T16:07:11.986Z,-56
2017-09-25T16:09:40.286Z,-56
2017-09-25T16:12:08.552Z,-56
2017-09-25T16:14:36.863Z,-56
2017-09-25T16:17:05.128Z,-56
2017-09-25T16:19:33.397Z,-56
2017-09-25T16:22:01.673Z,-56
2017-09-25T16:24:31.281Z,-56
2017-09-25T16:26:59.569Z,-56
2017-09-25T16:29:28.057Z,-57
2017-09-25T16:31:56.336Z,-57
2017-09-25T16:34:24.637Z,-57
2017-09-25T16:36:52.893Z,-57
2017-09-25T16:39:21.213Z,-57
2017-09-25T16:41:50.305Z,-57
2017-09-25T16:44:19.631Z,-57
2017-09-25T16:46:48.034Z,-57
2017-09-25T16:49:16.362Z,-56
2017-09-25T16:51:45.410Z,-57
2017-09-25T16:54:14.252Z,-57
2017-09-25T16:56:42.541Z,-57
2017-09-25T16:59:11.290Z,-57
2017-09-25T17:01:39.658Z,-57
2017-09-25T17:04:08.011Z,-57
2017-09-25T17:06:36.322Z,-57
2017-09-25T17:09:05.213Z,-57
2017-09-25T17:11:33.501Z,-57
2017-09-25T17:14:01.779Z,-56
2017-09-25T17:16:30.198Z,-57
2017-09-25T17:18:58.675Z,-57
2017-09-25T17:21:26.945Z,-57
2017-09-25T17:23:55.243Z,-57
2017-09-25T17:26:23.550Z,-57
2017-09-25T17:28:51.847Z,-57
2017-09-25T17:31:20.305Z,-55
2017-09-25T17:33:48.743Z,-58
2017-09-25T17:36:17.253Z,-57
2017-09-25T17:38:45.561Z,-57
2017-09-25T17:41:13.905Z,-57
2017-09-25T17:43:42.205Z,-57
2017-09-25T17:46:11.036Z,-57
2017-09-25T17:48:40.120Z,-56
2017-09-25T17:51:09.379Z,-56
2017-09-25T17:53:37.695Z,-57
2017-09-25T17:56:06.011Z,-58
2017-09-25T17:58:34.331Z,-57
2017-09-25T18:01:02.859Z,-57
2017-09-25T18:03:31.399Z,-58
2017-09-25T18:05:59.730Z,-58
2017-09-25T18:08:28.035Z,-58
2017-09-25T18:10:56.331Z,-56
2017-09-25T18:13:24.632Z,-58
2017-09-25T18:15:53.666Z,-56
2017-09-25T18:18:21.973Z,-56
2017-09-25T18:20:50.430Z,-56
2017-09-25T18:23:18.735Z,-56
2017-09-25T18:25:47.037Z,-55
2017-09-25T18:28:15.415Z,-55
2017-09-25T18:30:44.052Z,-55
2017-09-25T18:33:12.354Z,-57
2017-09-25T18:35:40.854Z,-57
2017-09-25T18:38:09.308Z,-58
2017-09-25T18:40:37.612Z,-58
2017-09-25T18:43:05.959Z,-58
2017-09-25T18:45:34.311Z,-58
2017-09-25T18:48:02.607Z,-58
2017-09-25T18:50:31.076Z,-58
2017-09-25T18:52:59.939Z,-58
2017-09-25T18:55:28.223Z,-58
2017-09-25T18:57:56.746Z,-58
2017-09-25T19:00:25.027Z,-58
2017-09-25T19:02:53.634Z,-60
2017-09-25T19:05:21.955Z,-59
2017-09-25T19:07:50.270Z,-58
2017-09-25T19:10:18.751Z,-56
2017-09-25T19:12:47.227Z,-56
2017-09-25T19:15:15.554Z,-56
2017-09-25T19:17:45.910Z,-57
2017-09-25T19:20:14.201Z,-57
2017-09-25T19:22:42.532Z,-56
2017-09-25T19:25:10.845Z,-56
2017-09-25T19:27:39.131Z,-56
2017-09-25T19:30:07.428Z,-58
2017-09-25T19:32:36.015Z,-58
2017-09-25T19:35:04.455Z,-59
2017-09-25T19:37:33.196Z,-56
2017-09-25T19:40:01.567Z,-58
2017-09-25T19:42:30.111Z,-62
2017-09-25T19:44:58.492Z,-61
2017-09-25T19:47:27.307Z,-61
2017-09-25T19:49:56.131Z,-63
2017-09-25T19:52:24.672Z,-59
2017-09-25T19:54:53.453Z,-58
2017-09-25T19:57:21.888Z,-60
2017-09-25T19:59:51.108Z,-61
2017-09-25T20:02:19.488Z,-60
2017-09-25T20:04:49.960Z,-59
2017-09-25T20:07:18.374Z,-59
2017-09-25T20:09:47.799Z,-59
2017-09-25T20:12:16.499Z,-59
2017-09-25T20:14:45.379Z,-58
2017-09-25T20:17:13.891Z,-59
2017-09-25T20:19:42.391Z,-62
2017-09-25T20:22:10.707Z,-59
2017-09-25T20:24:39.785Z,-60
2017-09-25T20:27:08.872Z,-60
2017-09-25T20:29:37.322Z,-60
2017-09-25T20:32:05.631Z,-60
2017-09-25T20:34:33.929Z,-60
2017-09-25T20:37:03.024Z,-60
2017-09-25T20:39:32.660Z,-60
2017-09-25T20:42:01.031Z,-60
2017-09-25T20:44:29.380Z,-60
2017-09-25T20:46:57.688Z,-60
2017-09-25T20:49:26.002Z,-60
2017-09-25T20:51:54.317Z,-58
2017-09-25T20:54:23.336Z,-60
2017-09-25T20:56:51.644Z,-59
2017-09-25T20:59:19.919Z,-58
2017-09-25T21:01:48.251Z,-59
2017-09-25T21:04:17.297Z,-59
2017-09-25T21:06:46.194Z,-59
2017-09-25T21:09:14.669Z,-59
2017-09-25T21:11:42.997Z,-58
2017-09-25T21:14:12.086Z,-58
2017-09-25T21:16:41.163Z,-58
2017-09-25T21:19:09.535Z,-58
2017-09-25T21:21:38.074Z,-58
2017-09-25T21:24:06.455Z,-58
2017-09-25T21:26:34.851Z,-59
2017-09-25T21:29:03.291Z,-58
2017-09-25T21:31:32.217Z,-59
2017-09-25T21:34:00.525Z,-59
2017-09-25T21:36:28.997Z,-59
2017-09-25T21:38:57.487Z,-59
2017-09-25T21:41:25.919Z,-59
2017-09-25T21:43:54.238Z,-59
2017-09-25T21:46:22.550Z,-58
2017-09-25T21:48:50.812Z,-60
2017-09-25T21:51:19.514Z,-59
2017-09-25T21:53:47.824Z,-59
2017-09-25T21:56:16.132Z,-59
2017-09-25T21:58:44.483Z,-59
2017-09-25T22:01:12.996Z,-59
2017-09-25T22:03:41.291Z,-59
2017-09-25T22:06:09.615Z,-59
2017-09-25T22:08:39.515Z,-59
2017-09-25T22:11:07.847Z,-59
2017-09-25T22:13:36.171Z,-59
2017-09-25T22:16:04.502Z,-59
2017-09-25T22:18:32.911Z,-59
2017-09-25T22:21:01.463Z,-59
2017-09-25T22:23:30.047Z,-59
2017-09-25T22:25:58.621Z,-59
2017-09-25T22:28:26.947Z,-59
2017-09-25T22:30:56.717Z,-59
2017-09-25T22:33:25.119Z,-58
2017-09-25T22:35:53.975Z,-59
2017-09-25T22:38:22.347Z,-60
2017-09-25T22:40:50.930Z,-58
2017-09-25T22:43:19.304Z,-58
2017-09-25T22:45:47.709Z,-58
2017-09-25T22:48:16.012Z,-58
2017-09-25T22:50:44.505Z,-58
2017-09-25T22:53:12.845Z,-58
2017-09-25T22:55:41.855Z,-59
2017-09-25T22:58:10.215Z,-59
2017-09-25T23:00:38.587Z,-59
2017-09-25T23:03:06.983Z,-59
2017-09-25T23:05:35.743Z,-58
2017-09-25T23:08:04.540Z,-59
2017-09-25T23:10:33.237Z,-58
2017-09-25T23:13:01.826Z,-59
2017-09-25T23:15:30.384Z,-59
2017-09-25T23:17:58.781Z,-60
2017-09-25T23:20:27.150Z,-59
2017-09-25T23:22:55.546Z,-59
2017-09-25T23:25:23.847Z,-60
2017-09-25T23:27:52.187Z,-59
2017-09-25T23:30:20.615Z,-59
2017-09-25T23:32:49.884Z,-57
2017-09-25T23:35:18.576Z,-59
2017-09-25T23:37:46.871Z,-59
2017-09-25T23:40:15.165Z,-59
2017-09-25T23:42:43.769Z,-59
2017-09-25T23:45:12.113Z,-60
2017-09-25T23:47:40.397Z,-59
2017-09-25T23:50:10.169Z,-59
2017-09-25T23:52:38.465Z,-59
2017-09-25T23:55:07.177Z,-57
2017-09-25T23:57:36.303Z,-57
